This is the latest recevied weather packets stored in our database for station/object HS2GJW-1. If no packets are shown the sender has not sent any weather packets the latest 10 day(s).
| Time | Temp. | Humidity | Pressure | Rain* | Wind** | Luminosity | Snow |
|---|---|---|---|---|---|---|---|
| 1777420944 | 31.11° C | 99% | 1009 hPa | - | - | 0 W/m² | - |
| 1777420321 | 30.56° C | 99% | 1009 hPa | - | - | 0 W/m² | - |
| 1777419697 | 30.56° C | 99% | 1009 hPa | - | - | 0 W/m² | - |
| 1777419073 | 30° C | 99% | 1009 hPa | - | - | 0 W/m² | - |
| 1777418449 | 30° C | 99% | 1008 hPa | - | - | 0 W/m² | - |
| 1777417825 | 29.44° C | 99% | 1008 hPa | - | - | 0 W/m² | - |
| 1777417201 | 28.89° C | 99% | 1008 hPa | - | - | 0 W/m² | - |
| 1777416577 | 28.33° C | 99% | 1008 hPa | - | - | 0 W/m² | - |
| 1777379533 | 34.44° C | 69% | 1006 hPa | - | - | 0 W/m² | - |
| 1777378910 | 34.44° C | 68% | 1006 hPa | - | - | 0 W/m² | - |
| 1777378286 | 35° C | 68% | 1006 hPa | - | - | 0 W/m² | - |
| 1777377661 | 35° C | 67% | 1006 hPa | - | - | 0 W/m² | - |
| 1777377038 | 35° C | 68% | 1006 hPa | - | - | 0 W/m² | - |
| 1777376414 | 35° C | 69% | 1006 hPa | - | - | 0 W/m² | - |
| 1777375790 | 34.44° C | 68% | 1005 hPa | - | - | 0 W/m² | - |
| 1777375166 | 35° C | 65% | 1005 hPa | - | - | 0 W/m² | - |
| 1777374542 | 35.56° C | 65% | 1005 hPa | - | - | 0 W/m² | - |
| 1777373918 | 35.56° C | 62% | 1005 hPa | - | - | 0 W/m² | - |
| 1777373294 | 35.56° C | 64% | 1005 hPa | - | - | 0 W/m² | - |
| 1777372670 | 36.11° C | 58% | 1005 hPa | - | - | 0 W/m² | - |
| 1777372046 | 36.11° C | 58% | 1005 hPa | - | - | 0 W/m² | - |
| 1777371422 | 36.67° C | 56% | 1005 hPa | - | - | 0 W/m² | - |
| 1777370799 | 37.22° C | 53% | 1004 hPa | - | - | 0 W/m² | - |
| 1777370175 | 37.78° C | 51% | 1004 hPa | - | - | 0 W/m² | - |
| 1777369551 | 37.78° C | 53% | 1004 hPa | - | - | 0 W/m² | - |
* Rain since midnight (hover to see other rain measurements)
** Current wind speed in m/s (hover to see current wind gust speed)